sensor_id;sensor_type;location;lat;lon;timestamp;pressure;altitude;pressure_sealevel;temperature;humidity
77855;BME280;67046;50.088;14.336;2023-04-24T00:00:27;96471.81;;;12.30;71.20
77855;BME280;67046;50.088;14.336;2023-04-24T00:01:18;96471.61;;;12.29;71.38
77855;BME280;67046;50.088;14.336;2023-04-24T00:01:50;96465.52;;;12.28;71.41
77855;BME280;67046;50.088;14.336;2023-04-24T00:02:21;96469.98;;;12.28;71.04
77855;BME280;67046;50.088;14.336;2023-04-24T00:02:53;96472.58;;;12.27;71.20
77855;BME280;67046;50.088;14.336;2023-04-24T00:03:28;96471.73;;;12.27;70.80
77855;BME280;67046;50.088;14.336;2023-04-24T00:03:59;96468.03;;;12.26;71.24
77855;BME280;67046;50.088;14.336;2023-04-24T00:04:31;96470.20;;;12.27;71.15
77855;BME280;67046;50.088;14.336;2023-04-24T00:05:03;96472.79;;;12.27;71.16
77855;BME280;67046;50.088;14.336;2023-04-24T00:05:35;96467.86;;;12.27;70.82
77855;BME280;67046;50.088;14.336;2023-04-24T00:06:06;96467.71;;;12.26;70.61
77855;BME280;67046;50.088;14.336;2023-04-24T00:06:39;96474.02;;;12.27;70.72
77855;BME280;67046;50.088;14.336;2023-04-24T00:07:13;96474.92;;;12.27;70.69
77855;BME280;67046;50.088;14.336;2023-04-24T00:07:45;96476.29;;;12.27;70.95
77855;BME280;67046;50.088;14.336;2023-04-24T00:08:17;96476.39;;;12.27;70.42
77855;BME280;67046;50.088;14.336;2023-04-24T00:08:48;96475.23;;;12.27;70.54
77855;BME280;67046;50.088;14.336;2023-04-24T00:09:19;96476.08;;;12.27;70.27
77855;BME280;67046;50.088;14.336;2023-04-24T00:09:50;96473.52;;;12.28;70.53
77855;BME280;67046;50.088;14.336;2023-04-24T00:10:22;96471.30;;;12.27;70.27
77855;BME280;67046;50.088;14.336;2023-04-24T00:10:53;96472.09;;;12.29;70.26
77855;BME280;67046;50.088;14.336;2023-04-24T00:11:24;96471.41;;;12.28;70.41
77855;BME280;67046;50.088;14.336;2023-04-24T00:11:56;96470.94;;;12.29;70.20
77855;BME280;67046;50.088;14.336;2023-04-24T00:12:27;96468.70;;;12.30;70.06
77855;BME280;67046;50.088;14.336;2023-04-24T00:12:58;96471.77;;;12.31;70.02
77855;BME280;67046;50.088;14.336;2023-04-24T00:13:30;96470.18;;;12.31;70.12
77855;BME280;67046;50.088;14.336;2023-04-24T00:14:02;96473.09;;;12.32;70.22
77855;BME280;67046;50.088;14.336;2023-04-24T00:14:33;96473.30;;;12.32;70.11
77855;BME280;67046;50.088;14.336;2023-04-24T00:15:06;96469.33;;;12.32;69.55
77855;BME280;67046;50.088;14.336;2023-04-24T00:15:38;96471.11;;;12.33;69.72
77855;BME280;67046;50.088;14.336;2023-04-24T00:16:09;96465.77;;;12.33;69.47
77855;BME280;67046;50.088;14.336;2023-04-24T00:16:40;96468.89;;;12.34;69.43
77855;BME280;67046;50.088;14.336;2023-04-24T00:17:11;96465.23;;;12.34;69.47
77855;BME280;67046;50.088;14.336;2023-04-24T00:17:43;96469.50;;;12.35;69.50
77855;BME280;67046;50.088;14.336;2023-04-24T00:18:14;96469.13;;;12.35;69.53
77855;BME280;67046;50.088;14.336;2023-04-24T00:18:45;96463.35;;;12.36;69.00
77855;BME280;67046;50.088;14.336;2023-04-24T00:19:18;96467.23;;;12.37;69.08
77855;BME280;67046;50.088;14.336;2023-04-24T00:19:52;96467.80;;;12.38;69.05
77855;BME280;67046;50.088;14.336;2023-04-24T00:20:29;96465.78;;;12.38;68.88
77855;BME280;67046;50.088;14.336;2023-04-24T00:21:00;96458.31;;;12.38;68.80
77855;BME280;67046;50.088;14.336;2023-04-24T00:21:31;96463.08;;;12.39;68.68
77855;BME280;67046;50.088;14.336;2023-04-24T00:22:03;96459.63;;;12.40;68.80
77855;BME280;67046;50.088;14.336;2023-04-24T00:22:35;96465.55;;;12.41;68.67
77855;BME280;67046;50.088;14.336;2023-04-24T00:23:06;96456.76;;;12.42;68.51
77855;BME280;67046;50.088;14.336;2023-04-24T00:23:37;96458.08;;;12.43;68.21
77855;BME280;67046;50.088;14.336;2023-04-24T00:24:09;96457.02;;;12.43;68.31
77855;BME280;67046;50.088;14.336;2023-04-24T00:24:40;96458.19;;;12.43;68.32
77855;BME280;67046;50.088;14.336;2023-04-24T00:25:11;96459.59;;;12.44;68.14
77855;BME280;67046;50.088;14.336;2023-04-24T00:25:43;96458.59;;;12.45;68.17
77855;BME280;67046;50.088;14.336;2023-04-24T00:26:14;96450.48;;;12.45;68.01
77855;BME280;67046;50.088;14.336;2023-04-24T00:26:46;96451.41;;;12.46;67.96
77855;BME280;67046;50.088;14.336;2023-04-24T00:27:17;96455.07;;;12.46;67.76
77855;BME280;67046;50.088;14.336;2023-04-24T00:27:48;96450.20;;;12.47;68.12
77855;BME280;67046;50.088;14.336;2023-04-24T00:28:20;96453.53;;;12.47;67.90
77855;BME280;67046;50.088;14.336;2023-04-24T00:28:51;96454.39;;;12.47;67.82
77855;BME280;67046;50.088;14.336;2023-04-24T00:29:22;96453.16;;;12.48;67.69
77855;BME280;67046;50.088;14.336;2023-04-24T00:29:54;96449.98;;;12.48;67.82
77855;BME280;67046;50.088;14.336;2023-04-24T00:30:25;96447.28;;;12.48;67.95
77855;BME280;67046;50.088;14.336;2023-04-24T00:30:56;96448.03;;;12.48;67.45
77855;BME280;67046;50.088;14.336;2023-04-24T00:31:28;96439.80;;;12.49;67.77
77855;BME280;67046;50.088;14.336;2023-04-24T00:31:59;96441.12;;;12.49;67.59
77855;BME280;67046;50.088;14.336;2023-04-24T00:32:30;96439.26;;;12.50;67.89
77855;BME280;67046;50.088;14.336;2023-04-24T00:33:02;96441.90;;;12.50;67.96
77855;BME280;67046;50.088;14.336;2023-04-24T00:33:33;96442.12;;;12.51;67.77
77855;BME280;67046;50.088;14.336;2023-04-24T00:34:05;96439.84;;;12.50;67.95
77855;BME280;67046;50.088;14.336;2023-04-24T00:34:36;96440.37;;;12.51;67.67
77855;BME280;67046;50.088;14.336;2023-04-24T00:35:08;96438.66;;;12.52;67.72
77855;BME280;67046;50.088;14.336;2023-04-24T00:35:39;96439.39;;;12.53;67.70
77855;BME280;67046;50.088;14.336;2023-04-24T00:36:11;96438.66;;;12.53;67.54
77855;BME280;67046;50.088;14.336;2023-04-24T00:36:42;96435.11;;;12.53;67.59
77855;BME280;67046;50.088;14.336;2023-04-24T00:37:13;96436.05;;;12.55;67.85
77855;BME280;67046;50.088;14.336;2023-04-24T00:37:44;96435.77;;;12.55;67.72
77855;BME280;67046;50.088;14.336;2023-04-24T00:38:16;96435.77;;;12.55;67.77
77855;BME280;67046;50.088;14.336;2023-04-24T00:38:47;96434.44;;;12.56;67.78
77855;BME280;67046;50.088;14.336;2023-04-24T00:39:19;96436.09;;;12.55;67.80
77855;BME280;67046;50.088;14.336;2023-04-24T00:39:50;96434.92;;;12.56;67.64
77855;BME280;67046;50.088;14.336;2023-04-24T00:40:21;96434.34;;;12.56;67.53
77855;BME280;67046;50.088;14.336;2023-04-24T00:40:53;96433.92;;;12.57;67.44
77855;BME280;67046;50.088;14.336;2023-04-24T00:41:25;96434.02;;;12.56;67.46
77855;BME280;67046;50.088;14.336;2023-04-24T00:41:57;96435.14;;;12.56;67.60
77855;BME280;67046;50.088;14.336;2023-04-24T00:42:28;96433.34;;;12.56;67.17
77855;BME280;67046;50.088;14.336;2023-04-24T00:42:59;96433.49;;;12.56;67.42
77855;BME280;67046;50.088;14.336;2023-04-24T00:43:31;96438.31;;;12.57;67.50
77855;BME280;67046;50.088;14.336;2023-04-24T00:44:02;96433.70;;;12.57;67.53
77855;BME280;67046;50.088;14.336;2023-04-24T00:44:33;96435.40;;;12.57;67.38
77855;BME280;67046;50.088;14.336;2023-04-24T00:45:06;96431.42;;;12.57;67.12
77855;BME280;67046;50.088;14.336;2023-04-24T00:45:37;96427.77;;;12.57;67.46
77855;BME280;67046;50.088;14.336;2023-04-24T00:46:09;96433.45;;;12.57;67.55
77855;BME280;67046;50.088;14.336;2023-04-24T00:46:42;96427.40;;;12.57;67.72
77855;BME280;67046;50.088;14.336;2023-04-24T00:47:13;96428.04;;;12.56;67.54
77855;BME280;67046;50.088;14.336;2023-04-24T00:47:45;96434.39;;;12.57;67.52
77855;BME280;67046;50.088;14.336;2023-04-24T00:48:17;96429.36;;;12.57;67.48
77855;BME280;67046;50.088;14.336;2023-04-24T00:48:50;96425.87;;;12.54;67.43
77855;BME280;67046;50.088;14.336;2023-04-24T00:49:21;96423.42;;;12.54;67.46
77855;BME280;67046;50.088;14.336;2023-04-24T00:49:52;96423.23;;;12.52;67.26
77855;BME280;67046;50.088;14.336;2023-04-24T00:50:24;96422.54;;;12.52;67.27
77855;BME280;67046;50.088;14.336;2023-04-24T00:50:56;96420.36;;;12.52;67.15
77855;BME280;67046;50.088;14.336;2023-04-24T00:51:28;96418.14;;;12.53;67.50
77855;BME280;67046;50.088;14.336;2023-04-24T00:52:01;96421.63;;;12.54;67.51
77855;BME280;67046;50.088;14.336;2023-04-24T00:52:33;96417.27;;;12.55;67.22
77855;BME280;67046;50.088;14.336;2023-04-24T00:53:04;96415.90;;;12.55;67.26
77855;BME280;67046;50.088;14.336;2023-04-24T00:53:35;96416.16;;;12.55;67.06
77855;BME280;67046;50.088;14.336;2023-04-24T00:54:07;96423.22;;;12.55;67.30
77855;BME280;67046;50.088;14.336;2023-04-24T00:54:38;96416.95;;;12.56;67.47
77855;BME280;67046;50.088;14.336;2023-04-24T00:55:11;96417.33;;;12.56;67.48
77855;BME280;67046;50.088;14.336;2023-04-24T00:55:42;96417.86;;;12.56;67.40
77855;BME280;67046;50.088;14.336;2023-04-24T00:56:14;96421.04;;;12.56;67.47
77855;BME280;67046;50.088;14.336;2023-04-24T00:56:45;96416.80;;;12.56;67.27
77855;BME280;67046;50.088;14.336;2023-04-24T00:57:17;96416.48;;;12.55;67.47
77855;BME280;67046;50.088;14.336;2023-04-24T00:57:49;96420.61;;;12.56;67.75
77855;BME280;67046;50.088;14.336;2023-04-24T00:58:20;96424.27;;;12.56;67.54
77855;BME280;67046;50.088;14.336;2023-04-24T00:58:52;96421.89;;;12.56;67.29
77855;BME280;67046;50.088;14.336;2023-04-24T00:59:23;96421.15;;;12.56;67.27
77855;BME280;67046;50.088;14.336;2023-04-24T00:59:55;96422.67;;;12.56;67.39
77855;BME280;67046;50.088;14.336;2023-04-24T01:00:26;96419.19;;;12.56;67.24
77855;BME280;67046;50.088;14.336;2023-04-24T01:00:58;96421.67;;;12.57;67.52
77855;BME280;67046;50.088;14.336;2023-04-24T01:01:30;96419.50;;;12.56;67.07
77855;BME280;67046;50.088;14.336;2023-04-24T01:02:01;96420.83;;;12.57;67.46
77855;BME280;67046;50.088;14.336;2023-04-24T01:02:32;96422.68;;;12.56;67.32
77855;BME280;67046;50.088;14.336;2023-04-24T01:03:05;96417.33;;;12.57;67.41
77855;BME280;67046;50.088;14.336;2023-04-24T01:03:38;96417.59;;;12.56;67.36
77855;BME280;67046;50.088;14.336;2023-04-24T01:04:11;96419.82;;;12.56;67.60
77855;BME280;67046;50.088;14.336;2023-04-24T01:04:43;96417.80;;;12.56;67.42
77855;BME280;67046;50.088;14.336;2023-04-24T01:05:15;96417.02;;;12.55;67.32
77855;BME280;67046;50.088;14.336;2023-04-24T01:05:49;96420.03;;;12.55;67.39
77855;BME280;67046;50.088;14.336;2023-04-24T01:06:22;96418.43;;;12.55;67.56
77855;BME280;67046;50.088;14.336;2023-04-24T01:06:53;96419.62;;;12.55;67.97
77855;BME280;67046;50.088;14.336;2023-04-24T01:07:26;96418.67;;;12.52;67.73
77855;BME280;67046;50.088;14.336;2023-04-24T01:07:58;96422.94;;;12.51;67.76
77855;BME280;67046;50.088;14.336;2023-04-24T01:08:30;96416.63;;;12.51;67.45
77855;BME280;67046;50.088;14.336;2023-04-24T01:09:02;96416.89;;;12.50;67.59
77855;BME280;67046;50.088;14.336;2023-04-24T01:09:34;96419.80;;;12.50;67.40
77855;BME280;67046;50.088;14.336;2023-04-24T01:10:07;96420.02;;;12.50;67.67
77855;BME280;67046;50.088;14.336;2023-04-24T01:10:40;96414.67;;;12.49;67.78
77855;BME280;67046;50.088;14.336;2023-04-24T01:11:12;96413.14;;;12.48;67.73
77855;BME280;67046;50.088;14.336;2023-04-24T01:11:43;96412.94;;;12.47;67.75
77855;BME280;67046;50.088;14.336;2023-04-24T01:12:15;96411.45;;;12.47;67.92
77855;BME280;67046;50.088;14.336;2023-04-24T01:12:46;96413.30;;;12.47;67.64
77855;BME280;67046;50.088;14.336;2023-04-24T01:13:21;96411.71;;;12.47;67.76
77855;BME280;67046;50.088;14.336;2023-04-24T01:13:52;96404.34;;;12.47;67.98
77855;BME280;67046;50.088;14.336;2023-04-24T01:14:24;96407.48;;;12.46;67.94
77855;BME280;67046;50.088;14.336;2023-04-24T01:14:56;96407.48;;;12.46;68.03
77855;BME280;67046;50.088;14.336;2023-04-24T01:15:28;96403.52;;;12.45;68.07
77855;BME280;67046;50.088;14.336;2023-04-24T01:16:00;96403.69;;;12.44;67.96
77855;BME280;67046;50.088;14.336;2023-04-24T01:16:32;96405.98;;;12.43;68.28
77855;BME280;67046;50.088;14.336;2023-04-24T01:17:03;96401.52;;;12.43;68.15
77855;BME280;67046;50.088;14.336;2023-04-24T01:17:34;96405.52;;;12.42;68.07
77855;BME280;67046;50.088;14.336;2023-04-24T01:18:07;96403.17;;;12.42;68.21
77855;BME280;67046;50.088;14.336;2023-04-24T01:18:38;96399.93;;;12.42;68.58
77855;BME280;67046;50.088;14.336;2023-04-24T01:19:10;96398.58;;;12.40;68.62
77855;BME280;67046;50.088;14.336;2023-04-24T01:19:42;96401.59;;;12.40;68.83
77855;BME280;67046;50.088;14.336;2023-04-24T01:20:15;96397.80;;;12.39;68.63
77855;BME280;67046;50.088;14.336;2023-04-24T01:20:51;96394.52;;;12.38;68.74
77855;BME280;67046;50.088;14.336;2023-04-24T01:21:26;96395.64;;;12.36;68.93
77855;BME280;67046;50.088;14.336;2023-04-24T01:22:02;96397.02;;;12.36;69.29
77855;BME280;67046;50.088;14.336;2023-04-24T01:22:34;96397.12;;;12.35;69.17
77855;BME280;67046;50.088;14.336;2023-04-24T01:23:06;96394.34;;;12.33;69.31
77855;BME280;67046;50.088;14.336;2023-04-24T01:23:38;96393.14;;;12.32;69.22
77855;BME280;67046;50.088;14.336;2023-04-24T01:24:09;96394.25;;;12.31;69.36
77855;BME280;67046;50.088;14.336;2023-04-24T01:24:41;96395.78;;;12.31;69.78
77855;BME280;67046;50.088;14.336;2023-04-24T01:25:13;96395.52;;;12.30;69.90
77855;BME280;67046;50.088;14.336;2023-04-24T01:25:45;96389.60;;;12.29;69.79
77855;BME280;67046;50.088;14.336;2023-04-24T01:26:17;96391.98;;;12.27;69.59
77855;BME280;67046;50.088;14.336;2023-04-24T01:26:51;96392.54;;;12.26;69.66
77855;BME280;67046;50.088;14.336;2023-04-24T01:27:22;96395.61;;;12.26;69.98
77855;BME280;67046;50.088;14.336;2023-04-24T01:27:54;96396.02;;;12.24;69.84
77855;BME280;67046;50.088;14.336;2023-04-24T01:28:25;96393.72;;;12.23;70.31
77855;BME280;67046;50.088;14.336;2023-04-24T01:28:57;96398.59;;;12.21;70.09
77855;BME280;67046;50.088;14.336;2023-04-24T01:29:28;96399.56;;;12.20;70.85
77855;BME280;67046;50.088;14.336;2023-04-24T01:30:00;96395.06;;;12.20;70.58
77855;BME280;67046;50.088;14.336;2023-04-24T01:30:32;96395.75;;;12.19;70.53
77855;BME280;67046;50.088;14.336;2023-04-24T01:31:03;96397.29;;;12.18;70.79
77855;BME280;67046;50.088;14.336;2023-04-24T01:31:35;96401.44;;;12.18;70.36
77855;BME280;67046;50.088;14.336;2023-04-24T01:32:06;96397.77;;;12.18;70.66
77855;BME280;67046;50.088;14.336;2023-04-24T01:32:38;96396.73;;;12.17;70.81
77855;BME280;67046;50.088;14.336;2023-04-24T01:33:10;96394.98;;;12.16;70.67
77855;BME280;67046;50.088;14.336;2023-04-24T01:33:42;96396.90;;;12.15;70.82
77855;BME280;67046;50.088;14.336;2023-04-24T01:34:14;96394.77;;;12.14;70.70
77855;BME280;67046;50.088;14.336;2023-04-24T01:34:46;96399.01;;;12.14;70.87
77855;BME280;67046;50.088;14.336;2023-04-24T01:35:18;96400.81;;;12.13;71.15
77855;BME280;67046;50.088;14.336;2023-04-24T01:35:50;96404.01;;;12.12;71.35
77855;BME280;67046;50.088;14.336;2023-04-24T01:36:21;96400.04;;;12.12;71.26
77855;BME280;67046;50.088;14.336;2023-04-24T01:36:53;96401.84;;;12.11;71.55
77855;BME280;67046;50.088;14.336;2023-04-24T01:37:25;96397.88;;;12.09;71.20
77855;BME280;67046;50.088;14.336;2023-04-24T01:37:57;96404.14;;;12.09;71.47
77855;BME280;67046;50.088;14.336;2023-04-24T01:38:29;96402.17;;;12.09;71.79
77855;BME280;67046;50.088;14.336;2023-04-24T01:39:00;96401.80;;;12.08;71.51
77855;BME280;67046;50.088;14.336;2023-04-24T01:39:32;96400.00;;;12.08;71.36
77855;BME280;67046;50.088;14.336;2023-04-24T01:40:05;96403.02;;;12.08;71.30
77855;BME280;67046;50.088;14.336;2023-04-24T01:40:37;96405.35;;;12.09;71.57
77855;BME280;67046;50.088;14.336;2023-04-24T01:41:09;96408.48;;;12.08;71.42
77855;BME280;67046;50.088;14.336;2023-04-24T01:41:41;96411.91;;;12.08;71.74
77855;BME280;67046;50.088;14.336;2023-04-24T01:42:13;96404.63;;;12.07;71.66
77855;BME280;67046;50.088;14.336;2023-04-24T01:42:45;96405.95;;;12.06;71.86
77855;BME280;67046;50.088;14.336;2023-04-24T01:43:16;96403.36;;;12.04;72.18
77855;BME280;67046;50.088;14.336;2023-04-24T01:43:49;96401.78;;;12.03;71.91
77855;BME280;67046;50.088;14.336;2023-04-24T01:44:21;96409.89;;;12.03;71.78
77855;BME280;67046;50.088;14.336;2023-04-24T01:44:53;96410.15;;;12.03;72.52
77855;BME280;67046;50.088;14.336;2023-04-24T01:45:25;96414.39;;;12.02;72.67
77855;BME280;67046;50.088;14.336;2023-04-24T01:45:56;96411.06;;;12.01;72.67
77855;BME280;67046;50.088;14.336;2023-04-24T01:46:27;96406.24;;;11.99;72.31
77855;BME280;67046;50.088;14.336;2023-04-24T01:47:00;96410.97;;;11.98;72.44
77855;BME280;67046;50.088;14.336;2023-04-24T01:47:32;96411.61;;;11.98;72.41
77855;BME280;67046;50.088;14.336;2023-04-24T01:48:03;96413.20;;;11.98;72.96
77855;BME280;67046;50.088;14.336;2023-04-24T01:48:35;96415.21;;;11.97;72.94
77855;BME280;67046;50.088;14.336;2023-04-24T01:49:06;96410.12;;;11.96;72.57
77855;BME280;67046;50.088;14.336;2023-04-24T01:49:38;96410.49;;;11.96;72.83
77855;BME280;67046;50.088;14.336;2023-04-24T01:50:09;96411.41;;;11.95;72.90
77855;BME280;67046;50.088;14.336;2023-04-24T01:50:41;96414.41;;;11.96;72.89
77855;BME280;67046;50.088;14.336;2023-04-24T01:51:12;96408.17;;;11.94;72.97
77855;BME280;67046;50.088;14.336;2023-04-24T01:51:43;96413.58;;;11.94;72.85
77855;BME280;67046;50.088;14.336;2023-04-24T01:52:15;96411.99;;;11.94;73.24
77855;BME280;67046;50.088;14.336;2023-04-24T01:52:48;96411.84;;;11.94;72.75
77855;BME280;67046;50.088;14.336;2023-04-24T01:53:19;96409.50;;;11.95;73.08
77855;BME280;67046;50.088;14.336;2023-04-24T01:53:51;96409.98;;;11.95;73.14
77855;BME280;67046;50.088;14.336;2023-04-24T01:54:22;96408.17;;;11.94;73.41
77855;BME280;67046;50.088;14.336;2023-04-24T01:54:53;96415.12;;;11.94;73.71
77855;BME280;67046;50.088;14.336;2023-04-24T01:55:27;96406.45;;;11.92;73.69
77855;BME280;67046;50.088;14.336;2023-04-24T01:55:58;96409.06;;;11.93;73.26
77855;BME280;67046;50.088;14.336;2023-04-24T01:56:29;96406.88;;;11.91;73.61
77855;BME280;67046;50.088;14.336;2023-04-24T01:57:01;96404.18;;;11.90;73.94
77855;BME280;67046;50.088;14.336;2023-04-24T01:57:33;96398.73;;;11.89;73.84
77855;BME280;67046;50.088;14.336;2023-04-24T01:58:05;96405.20;;;11.88;73.85
77855;BME280;67046;50.088;14.336;2023-04-24T01:58:36;96399.41;;;11.88;73.58
77855;BME280;67046;50.088;14.336;2023-04-24T01:59:09;96400.64;;;11.88;73.50
77855;BME280;67046;50.088;14.336;2023-04-24T01:59:41;96399.52;;;11.88;73.68
77855;BME280;67046;50.088;14.336;2023-04-24T02:00:13;96398.20;;;11.88;73.45
77855;BME280;67046;50.088;14.336;2023-04-24T02:00:44;96397.63;;;11.88;73.89
77855;BME280;67046;50.088;14.336;2023-04-24T02:01:19;96396.77;;;11.88;73.60
77855;BME280;67046;50.088;14.336;2023-04-24T02:01:50;96396.88;;;11.89;74.01
77855;BME280;67046;50.088;14.336;2023-04-24T02:02:22;96397.45;;;11.89;74.01
77855;BME280;67046;50.088;14.336;2023-04-24T02:02:54;96391.37;;;11.89;73.61
77855;BME280;67046;50.088;14.336;2023-04-24T02:03:26;96399.10;;;11.89;74.25
77855;BME280;67046;50.088;14.336;2023-04-24T02:03:57;96395.71;;;11.89;74.00
77855;BME280;67046;50.088;14.336;2023-04-24T02:04:29;96397.03;;;11.91;73.99
77855;BME280;67046;50.088;14.336;2023-04-24T02:05:00;96395.59;;;11.91;73.74
77855;BME280;67046;50.088;14.336;2023-04-24T02:05:31;96399.05;;;11.90;73.70
77855;BME280;67046;50.088;14.336;2023-04-24T02:06:03;96393.58;;;11.91;74.00
77855;BME280;67046;50.088;14.336;2023-04-24T02:06:34;96393.52;;;11.92;74.20
77855;BME280;67046;50.088;14.336;2023-04-24T02:07:06;96392.20;;;11.92;74.60
77855;BME280;67046;50.088;14.336;2023-04-24T02:07:37;96390.88;;;11.91;74.19
77855;BME280;67046;50.088;14.336;2023-04-24T02:08:08;96393.85;;;11.91;74.19
77855;BME280;67046;50.088;14.336;2023-04-24T02:08:39;96406.09;;;11.92;74.48
77855;BME280;67046;50.088;14.336;2023-04-24T02:09:10;96392.73;;;11.92;74.71
77855;BME280;67046;50.088;14.336;2023-04-24T02:09:42;96389.83;;;11.91;74.77
77855;BME280;67046;50.088;14.336;2023-04-24T02:10:13;96391.09;;;11.91;75.01
77855;BME280;67046;50.088;14.336;2023-04-24T02:10:44;96394.37;;;11.91;74.72
77855;BME280;67046;50.088;14.336;2023-04-24T02:11:16;96396.86;;;11.91;74.76
77855;BME280;67046;50.088;14.336;2023-04-24T02:11:47;96397.04;;;11.90;75.44
77855;BME280;67046;50.088;14.336;2023-04-24T02:12:18;96392.86;;;11.89;75.22
77855;BME280;67046;50.088;14.336;2023-04-24T02:12:49;96392.54;;;11.88;75.26
77855;BME280;67046;50.088;14.336;2023-04-24T02:13:21;96396.08;;;11.88;75.58
77855;BME280;67046;50.088;14.336;2023-04-24T02:13:53;96389.20;;;11.88;75.64
77855;BME280;67046;50.088;14.336;2023-04-24T02:14:24;96386.95;;;11.86;75.51
77855;BME280;67046;50.088;14.336;2023-04-24T02:14:56;96393.24;;;11.87;75.54
77855;BME280;67046;50.088;14.336;2023-04-24T02:15:27;96392.34;;;11.86;75.24
77855;BME280;67046;50.088;14.336;2023-04-24T02:15:59;96389.97;;;11.87;75.31
77855;BME280;67046;50.088;14.336;2023-04-24T02:16:30;96386.63;;;11.87;75.44
77855;BME280;67046;50.088;14.336;2023-04-24T02:17:03;96388.53;;;11.87;75.60
77855;BME280;67046;50.088;14.336;2023-04-24T02:17:35;96391.71;;;11.87;75.28
77855;BME280;67046;50.088;14.336;2023-04-24T02:18:07;96393.14;;;11.87;75.41
77855;BME280;67046;50.088;14.336;2023-04-24T02:18:38;96387.31;;;11.87;75.76
77855;BME280;67046;50.088;14.336;2023-04-24T02:19:10;96386.47;;;11.87;75.20
77855;BME280;67046;50.088;14.336;2023-04-24T02:19:41;96390.02;;;11.87;75.72
77855;BME280;67046;50.088;14.336;2023-04-24T02:20:12;96388.59;;;11.87;75.40
77855;BME280;67046;50.088;14.336;2023-04-24T02:20:44;96390.23;;;11.87;75.66
77855;BME280;67046;50.088;14.336;2023-04-24T02:21:16;96387.41;;;11.87;75.71
77855;BME280;67046;50.088;14.336;2023-04-24T02:21:47;96385.20;;;11.87;75.53
77855;BME280;67046;50.088;14.336;2023-04-24T02:22:18;96386.64;;;11.86;75.32
77855;BME280;67046;50.088;14.336;2023-04-24T02:22:49;96386.45;;;11.88;75.49
77855;BME280;67046;50.088;14.336;2023-04-24T02:23:21;96389.70;;;11.87;75.38
77855;BME280;67046;50.088;14.336;2023-04-24T02:23:52;96383.77;;;11.87;75.46
77855;BME280;67046;50.088;14.336;2023-04-24T02:24:23;96381.97;;;11.87;75.07
77855;BME280;67046;50.088;14.336;2023-04-24T02:24:55;96378.14;;;11.88;76.16
77855;BME280;67046;50.088;14.336;2023-04-24T02:25:26;96381.05;;;11.88;75.97
77855;BME280;67046;50.088;14.336;2023-04-24T02:25:57;96382.63;;;11.88;75.77
77855;BME280;67046;50.088;14.336;2023-04-24T02:26:28;96380.84;;;11.88;75.99
77855;BME280;67046;50.088;14.336;2023-04-24T02:27:01;96378.45;;;11.89;75.58
77855;BME280;67046;50.088;14.336;2023-04-24T02:27:33;96375.81;;;11.89;75.44
77855;BME280;67046;50.088;14.336;2023-04-24T02:28:05;96375.59;;;11.89;75.99
77855;BME280;67046;50.088;14.336;2023-04-24T02:28:36;96380.83;;;11.89;76.10
77855;BME280;67046;50.088;14.336;2023-04-24T02:29:07;96377.22;;;11.91;75.68
77855;BME280;67046;50.088;14.336;2023-04-24T02:29:38;96379.08;;;11.90;75.99
77855;BME280;67046;50.088;14.336;2023-04-24T02:30:10;96378.39;;;11.90;75.48
77855;BME280;67046;50.088;14.336;2023-04-24T02:30:41;96378.06;;;11.91;75.58
77855;BME280;67046;50.088;14.336;2023-04-24T02:31:12;96384.63;;;11.91;75.84
77855;BME280;67046;50.088;14.336;2023-04-24T02:31:44;96380.02;;;11.91;75.95
77855;BME280;67046;50.088;14.336;2023-04-24T02:32:15;96380.55;;;11.91;75.83
77855;BME280;67046;50.088;14.336;2023-04-24T02:32:47;96381.72;;;11.91;75.92
77855;BME280;67046;50.088;14.336;2023-04-24T02:33:18;96383.79;;;11.92;75.81
77855;BME280;67046;50.088;14.336;2023-04-24T02:33:49;96383.84;;;11.91;75.77
77855;BME280;67046;50.088;14.336;2023-04-24T02:34:20;96383.05;;;11.92;75.74
77855;BME280;67046;50.088;14.336;2023-04-24T02:34:52;96382.79;;;11.92;75.89
77855;BME280;67046;50.088;14.336;2023-04-24T02:35:23;96382.52;;;11.93;76.05
77855;BME280;67046;50.088;14.336;2023-04-24T02:35:54;96385.79;;;11.94;76.04
77855;BME280;67046;50.088;14.336;2023-04-24T02:36:25;96386.90;;;11.95;75.80
77855;BME280;67046;50.088;14.336;2023-04-24T02:36:57;96383.76;;;11.96;75.85
77855;BME280;67046;50.088;14.336;2023-04-24T02:37:28;96386.35;;;11.97;75.75
77855;BME280;67046;50.088;14.336;2023-04-24T02:37:59;96385.23;;;11.98;75.85
77855;BME280;67046;50.088;14.336;2023-04-24T02:38:31;96384.54;;;11.99;75.97
77855;BME280;67046;50.088;14.336;2023-04-24T02:39:02;96389.62;;;11.99;75.74
77855;BME280;67046;50.088;14.336;2023-04-24T02:39:34;96388.17;;;11.99;75.67
77855;BME280;67046;50.088;14.336;2023-04-24T02:40:06;96387.20;;;11.97;75.86
77855;BME280;67046;50.088;14.336;2023-04-24T02:40:38;96388.45;;;11.96;75.63
77855;BME280;67046;50.088;14.336;2023-04-24T02:41:09;96390.21;;;11.96;75.80
77855;BME280;67046;50.088;14.336;2023-04-24T02:41:40;96385.55;;;11.96;75.88
77855;BME280;67046;50.088;14.336;2023-04-24T02:42:12;96385.52;;;11.95;75.99
77855;BME280;67046;50.088;14.336;2023-04-24T02:42:43;96388.63;;;11.96;75.94
77855;BME280;67046;50.088;14.336;2023-04-24T02:43:14;96387.41;;;11.97;75.99
77855;BME280;67046;50.088;14.336;2023-04-24T02:43:45;96388.67;;;11.98;76.18
77855;BME280;67046;50.088;14.336;2023-04-24T02:44:17;96389.59;;;11.98;75.80
77855;BME280;67046;50.088;14.336;2023-04-24T02:44:48;96389.01;;;11.98;75.78
77855;BME280;67046;50.088;14.336;2023-04-24T02:45:21;96391.96;;;11.98;75.61
77855;BME280;67046;50.088;14.336;2023-04-24T02:45:53;96388.11;;;11.98;75.86
77855;BME280;67046;50.088;14.336;2023-04-24T02:46:24;96388.04;;;11.98;75.73